createdAt,value
2023-05-10T00:00:22.029Z,66.9
2023-05-10T00:01:23.205Z,66.9
2023-05-10T00:02:24.939Z,66.9
2023-05-10T00:03:26.389Z,67
2023-05-10T00:04:27.560Z,67
2023-05-10T00:05:28.723Z,67
2023-05-10T00:06:29.895Z,67.1
2023-05-10T00:07:31.064Z,67.2
2023-05-10T00:08:32.225Z,67.2
2023-05-10T00:09:33.389Z,67.3
2023-05-10T00:10:34.576Z,67.3
2023-05-10T00:11:35.774Z,67.3
2023-05-10T00:12:36.908Z,67.4
2023-05-10T00:13:38.078Z,67.4
2023-05-10T00:14:39.248Z,67.4
2023-05-10T00:15:40.408Z,67.5
2023-05-10T00:16:41.671Z,67.5
2023-05-10T00:17:42.872Z,67.5
2023-05-10T00:18:44.041Z,67.5
2023-05-10T00:19:45.187Z,67.6
2023-05-10T00:20:46.352Z,67.6
2023-05-10T00:21:47.528Z,67.7
2023-05-10T00:22:48.688Z,67.7
2023-05-10T00:23:49.857Z,67.7
2023-05-10T00:24:51.019Z,67.7
2023-05-10T00:25:52.186Z,67.7
2023-05-10T00:26:53.421Z,67.7
2023-05-10T00:27:54.609Z,67.7
2023-05-10T00:28:55.758Z,67.8
2023-05-10T00:29:56.927Z,67.8
2023-05-10T00:30:58.088Z,67.9
2023-05-10T00:31:59.373Z,67.9
2023-05-10T00:33:00.615Z,67.9
2023-05-10T00:34:01.775Z,67.9
2023-05-10T00:35:02.949Z,67.9
2023-05-10T00:36:04.154Z,67.9
2023-05-10T00:37:05.334Z,67.9
2023-05-10T00:38:06.538Z,67.9
2023-05-10T00:39:07.683Z,67.9
2023-05-10T00:40:08.847Z,67.9
2023-05-10T00:41:10.048Z,68
2023-05-10T00:42:11.276Z,68
2023-05-10T00:43:12.447Z,68
2023-05-10T00:44:13.629Z,68
2023-05-10T00:45:14.790Z,68
2023-05-10T00:46:16.108Z,68.1
2023-05-10T00:47:17.552Z,68.1
2023-05-10T00:48:18.726Z,68.1
2023-05-10T00:49:19.891Z,68.1
2023-05-10T00:50:21.093Z,68.1
2023-05-10T00:51:22.248Z,68.2
2023-05-10T00:52:23.424Z,68.2
2023-05-10T00:53:24.561Z,68.2
2023-05-10T00:54:25.765Z,68.3
2023-05-10T00:55:26.892Z,68.3
2023-05-10T00:56:28.056Z,68.3
2023-05-10T00:57:29.350Z,68.3
2023-05-10T00:58:30.492Z,68.4
2023-05-10T00:59:31.663Z,68.4
2023-05-10T01:00:32.827Z,68.5
2023-05-10T01:01:34.087Z,68.5
2023-05-10T01:02:35.481Z,68.6
2023-05-10T01:03:36.805Z,68.6
2023-05-10T01:04:38.160Z,68.7
2023-05-10T01:05:39.462Z,68.7
2023-05-10T01:06:40.617Z,68.7
2023-05-10T01:07:41.824Z,68.7
2023-05-10T01:08:42.987Z,68.7
2023-05-10T01:09:44.185Z,68.7
2023-05-10T01:10:45.351Z,68.7
2023-05-10T01:11:46.521Z,68.7
2023-05-10T01:12:48.741Z,68.7
2023-05-10T01:13:50.047Z,68.7
2023-05-10T01:14:51.211Z,68.7
2023-05-10T01:15:52.384Z,68.7
2023-05-10T01:16:53.551Z,68.7
2023-05-10T01:17:54.751Z,68.7
2023-05-10T01:18:55.906Z,68.7
2023-05-10T01:19:57.065Z,68.7
2023-05-10T01:20:58.230Z,68.7
2023-05-10T01:21:59.386Z,68.8
2023-05-10T01:23:00.573Z,68.8
2023-05-10T01:24:01.728Z,68.9
2023-05-10T01:25:02.891Z,69
2023-05-10T01:26:04.053Z,69
2023-05-10T01:27:05.220Z,69
2023-05-10T01:28:06.412Z,69.1
2023-05-10T01:29:07.572Z,69.1
2023-05-10T01:30:16.811Z,69.1
2023-05-10T01:31:18.025Z,69.2
2023-05-10T01:32:19.161Z,69.2
2023-05-10T01:33:20.331Z,69.2
2023-05-10T01:34:21.500Z,69.2
2023-05-10T01:35:22.663Z,69.3
2023-05-10T01:36:23.826Z,69.3
2023-05-10T01:37:24.989Z,69.4
2023-05-10T01:38:26.154Z,69.4
2023-05-10T01:39:27.321Z,69.5
2023-05-10T01:40:28.488Z,69.5
2023-05-10T01:41:29.653Z,69.6
2023-05-10T01:42:30.813Z,69.6
2023-05-10T01:43:32.007Z,69.6
2023-05-10T01:44:33.147Z,69.7
2023-05-10T01:45:34.316Z,69.7
2023-05-10T01:46:35.509Z,69.7
2023-05-10T01:47:36.828Z,69.8
2023-05-10T01:48:38.473Z,69.9
2023-05-10T01:49:39.620Z,69.9
2023-05-10T01:50:40.787Z,69.9
2023-05-10T01:51:41.971Z,69.9
2023-05-10T01:52:43.142Z,69.9
2023-05-10T01:53:44.396Z,69.9
2023-05-10T01:54:45.652Z,69.9
2023-05-10T01:55:46.776Z,69.9
2023-05-10T01:56:47.943Z,69.9
2023-05-10T01:57:49.106Z,69.9
2023-05-10T01:58:50.304Z,69.9
2023-05-10T01:59:51.447Z,69.9
2023-05-10T02:00:52.695Z,70
2023-05-10T02:01:53.838Z,70
2023-05-10T02:02:55.039Z,70
2023-05-10T02:03:56.259Z,70.1
2023-05-10T02:04:57.435Z,70.1
2023-05-10T02:05:58.649Z,70.1
2023-05-10T02:06:59.784Z,70.2
2023-05-10T02:08:00.958Z,70.2
2023-05-10T02:09:02.145Z,70.3
2023-05-10T02:10:03.324Z,70.4
2023-05-10T02:11:04.496Z,70.4
2023-05-10T02:12:05.713Z,70.5
2023-05-10T02:13:06.986Z,70.5
2023-05-10T02:14:08.365Z,70.5
2023-05-10T02:15:09.524Z,70.5
2023-05-10T02:16:10.709Z,70.5
2023-05-10T02:17:11.875Z,70.5
2023-05-10T02:18:13.035Z,70.5
2023-05-10T02:19:14.204Z,70.4
2023-05-10T02:20:22.787Z,70.4
2023-05-10T02:21:23.911Z,70.4
2023-05-10T02:22:25.075Z,70.5
2023-05-10T02:23:26.242Z,70.5
2023-05-10T02:24:27.410Z,70.5
2023-05-10T02:25:28.581Z,70.6
2023-05-10T02:26:29.740Z,70.5
2023-05-10T02:27:30.909Z,70.5
2023-05-10T02:28:32.071Z,70.5
2023-05-10T02:29:33.286Z,70.5
2023-05-10T02:30:34.425Z,70.5
2023-05-10T02:31:35.780Z,70.5
2023-05-10T02:32:36.964Z,70.5
2023-05-10T02:33:38.113Z,70.5
2023-05-10T02:34:39.293Z,70.5
2023-05-10T02:35:40.507Z,70.5
2023-05-10T02:36:41.652Z,70.5
2023-05-10T02:37:42.832Z,70.5
2023-05-10T02:38:43.993Z,70.5
2023-05-10T02:39:45.169Z,70.5
2023-05-10T02:40:46.330Z,70.6
2023-05-10T02:41:47.492Z,70.6
2023-05-10T02:42:48.666Z,70.6
2023-05-10T02:43:49.824Z,70.6
2023-05-10T02:44:51.019Z,70.6
2023-05-10T02:45:52.320Z,70.6
2023-05-10T02:46:53.475Z,70.7
2023-05-10T02:47:54.756Z,70.7
2023-05-10T02:48:55.939Z,70.7
2023-05-10T02:49:57.441Z,70.7
2023-05-10T02:50:58.602Z,70.7
2023-05-10T02:51:59.771Z,70.8
2023-05-10T02:53:00.995Z,70.8
2023-05-10T02:54:02.205Z,70.8
2023-05-10T02:55:03.422Z,70.8
2023-05-10T02:56:04.564Z,70.8
2023-05-10T02:57:05.721Z,70.9
2023-05-10T02:58:06.886Z,70.9
2023-05-10T02:59:08.092Z,70.9
2023-05-10T03:00:09.253Z,71
2023-05-10T03:01:10.538Z,71
2023-05-10T03:02:11.686Z,71.1
2023-05-10T03:03:12.857Z,71.1
2023-05-10T03:04:14.025Z,71.2
2023-05-10T03:05:15.194Z,71.2
2023-05-10T03:06:16.426Z,71.3
2023-05-10T03:07:17.961Z,71.4
2023-05-10T03:08:19.237Z,71.4
2023-05-10T03:09:20.403Z,71.5
2023-05-10T03:10:21.627Z,71.5
2023-05-10T03:11:22.809Z,71.6
2023-05-10T03:12:23.958Z,71.6
2023-05-10T03:13:25.307Z,71.7
2023-05-10T03:14:26.503Z,71.7
2023-05-10T03:15:27.670Z,71.7
2023-05-10T03:16:29.290Z,71.7
2023-05-10T03:17:30.442Z,71.7
2023-05-10T03:18:31.606Z,71.7
2023-05-10T03:19:32.770Z,71.7
2023-05-10T03:20:33.932Z,71.7
2023-05-10T03:21:35.116Z,71.7
2023-05-10T03:22:36.300Z,71.6
2023-05-10T03:23:37.453Z,71.6
2023-05-10T03:24:38.620Z,71.6
2023-05-10T03:25:39.803Z,71.6
2023-05-10T03:26:40.966Z,71.6
2023-05-10T03:27:42.130Z,71.7
2023-05-10T03:28:43.300Z,71.7
2023-05-10T03:29:44.467Z,71.7
2023-05-10T03:30:45.673Z,71.7
2023-05-10T03:31:46.943Z,71.8
2023-05-10T03:32:48.317Z,71.8
2023-05-10T03:33:49.483Z,71.8
2023-05-10T03:34:50.643Z,71.8
2023-05-10T03:35:51.921Z,71.8
2023-05-10T03:36:53.079Z,71.9
2023-05-10T03:37:54.250Z,71.9
2023-05-10T03:38:55.440Z,71.9
2023-05-10T03:39:56.803Z,71.9
2023-05-10T03:41:00.991Z,71.9
2023-05-10T03:42:02.291Z,71.8
2023-05-10T03:43:03.484Z,71.8
2023-05-10T03:44:04.637Z,71.7
2023-05-10T03:45:05.886Z,71.7
2023-05-10T03:46:07.129Z,71.6
2023-05-10T03:47:08.359Z,71.6
2023-05-10T03:48:09.869Z,71.6
2023-05-10T03:49:11.140Z,71.6
2023-05-10T03:50:12.359Z,71.6
2023-05-10T03:51:13.806Z,71.5
2023-05-10T03:52:14.967Z,71.5
2023-05-10T03:53:16.135Z,71.5
2023-05-10T03:54:17.295Z,71.5
2023-05-10T03:55:18.461Z,71.5
2023-05-10T03:56:19.629Z,71.5
2023-05-10T03:57:20.881Z,71.5
2023-05-10T03:58:22.080Z,71.5
2023-05-10T03:59:23.251Z,71.5
2023-05-10T04:00:24.429Z,71.5
2023-05-10T04:01:25.607Z,71.5
2023-05-10T04:02:27.095Z,71.5
2023-05-10T04:03:28.626Z,71.5
2023-05-10T04:04:29.952Z,71.6
2023-05-10T04:05:31.117Z,71.6
2023-05-10T04:06:32.451Z,71.6
2023-05-10T04:07:33.622Z,71.6
2023-05-10T04:08:34.774Z,71.6
2023-05-10T04:09:35.944Z,71.6
2023-05-10T04:10:37.116Z,71.6
2023-05-10T04:11:38.285Z,71.6
2023-05-10T04:12:39.493Z,71.6
2023-05-10T04:13:40.648Z,71.6
2023-05-10T04:14:41.836Z,71.6
2023-05-10T04:15:42.998Z,71.6
2023-05-10T04:16:44.362Z,71.6
2023-05-10T04:17:45.810Z,71.5
2023-05-10T04:18:46.948Z,71.5
2023-05-10T04:19:48.114Z,71.5
2023-05-10T04:20:49.278Z,71.5
2023-05-10T04:21:50.444Z,71.5
2023-05-10T04:22:51.606Z,71.5
2023-05-10T04:23:52.780Z,71.5
2023-05-10T04:24:53.940Z,71.5
2023-05-10T04:25:55.146Z,71.6
2023-05-10T04:26:58.573Z,71.6
2023-05-10T04:27:59.734Z,71.6
2023-05-10T04:29:00.897Z,71.6
2023-05-10T04:30:02.062Z,71.6
2023-05-10T04:31:03.439Z,71.6
2023-05-10T04:32:07.802Z,71.6
2023-05-10T04:33:09.096Z,71.6
2023-05-10T04:34:10.292Z,71.6
2023-05-10T04:35:11.484Z,71.6
2023-05-10T04:36:12.628Z,71.6
2023-05-10T04:37:13.800Z,71.5
2023-05-10T04:38:14.967Z,71.5
2023-05-10T04:39:16.129Z,71.5
2023-05-10T04:40:18.187Z,71.5
2023-05-10T04:41:19.559Z,71.4
2023-05-10T04:42:20.735Z,71.4
2023-05-10T04:43:21.890Z,71.4
2023-05-10T04:44:23.064Z,71.4
2023-05-10T04:45:24.224Z,71.5
2023-05-10T04:46:25.480Z,71.5
2023-05-10T04:47:26.749Z,71.5
2023-05-10T04:48:27.880Z,71.5
2023-05-10T04:49:29.055Z,71.5
2023-05-10T04:50:30.216Z,71.6
2023-05-10T04:51:31.380Z,71.6
2023-05-10T04:52:32.595Z,71.6
2023-05-10T04:53:33.774Z,71.6
2023-05-10T04:54:34.935Z,71.6
2023-05-10T04:55:36.091Z,71.6
2023-05-10T04:56:37.254Z,71.6
2023-05-10T04:57:38.427Z,71.6
2023-05-10T04:58:39.588Z,71.7
2023-05-10T04:59:40.791Z,71.6
2023-05-10T05:00:41.923Z,71.7
2023-05-10T05:01:43.197Z,71.7
2023-05-10T05:02:44.592Z,71.7
2023-05-10T05:03:46.322Z,71.7
2023-05-10T05:04:47.492Z,71.7
2023-05-10T05:05:48.664Z,71.7
2023-05-10T05:06:54.055Z,71.7
2023-05-10T05:07:55.286Z,71.8
2023-05-10T05:08:56.448Z,71.8
2023-05-10T05:09:57.613Z,71.9
2023-05-10T05:10:58.782Z,71.9
2023-05-10T05:11:59.947Z,71.9
2023-05-10T05:13:01.201Z,71.9
2023-05-10T05:14:02.348Z,71.9
2023-05-10T05:15:03.535Z,72
2023-05-10T05:16:04.794Z,72
2023-05-10T05:17:05.972Z,72
2023-05-10T05:18:07.309Z,72
2023-05-10T05:19:08.456Z,72
2023-05-10T05:20:09.624Z,72
2023-05-10T05:21:10.786Z,72
2023-05-10T05:22:11.959Z,72
2023-05-10T05:23:13.127Z,72.1
2023-05-10T05:24:14.286Z,72.1
2023-05-10T05:25:15.450Z,72.2
2023-05-10T05:26:16.799Z,72.2
2023-05-10T05:27:17.971Z,72.3
2023-05-10T05:28:19.127Z,72.3
2023-05-10T05:29:20.293Z,72.4
2023-05-10T05:30:21.465Z,72.4
2023-05-10T05:31:22.820Z,72.5
2023-05-10T05:32:23.987Z,72.5
2023-05-10T05:33:25.180Z,72.6
2023-05-10T05:34:26.312Z,72.6
2023-05-10T05:35:27.480Z,72.7
2023-05-10T05:36:28.652Z,72.8
2023-05-10T05:37:29.820Z,72.8
2023-05-10T05:38:30.990Z,72.9
2023-05-10T05:39:32.149Z,72.9
2023-05-10T05:40:33.314Z,73
2023-05-10T05:41:34.498Z,73.1
2023-05-10T05:42:35.646Z,73.2
2023-05-10T05:43:39.109Z,73.3
2023-05-10T05:44:40.286Z,73.3
2023-05-10T05:45:41.464Z,73.4
2023-05-10T05:46:42.650Z,73.4
2023-05-10T05:47:43.801Z,73.4
2023-05-10T05:48:45.011Z,73.4
2023-05-10T05:49:46.156Z,73.5
2023-05-10T05:50:47.347Z,73.5
2023-05-10T05:51:48.539Z,73.5
2023-05-10T05:52:49.679Z,73.6
2023-05-10T05:53:50.844Z,73.6
2023-05-10T05:54:52.018Z,73.6
2023-05-10T05:55:53.188Z,73.6
2023-05-10T05:56:54.415Z,73.7
2023-05-10T05:57:55.575Z,73.6
2023-05-10T05:58:56.742Z,73.6
2023-05-10T05:59:57.912Z,73.6
2023-05-10T06:00:59.086Z,73.6
2023-05-10T06:02:00.370Z,73.5
2023-05-10T06:03:02.525Z,73.5
2023-05-10T06:04:04.064Z,73.5
2023-05-10T06:05:05.416Z,73.6
2023-05-10T06:06:06.568Z,73.6
2023-05-10T06:07:07.736Z,73.6
2023-05-10T06:08:08.906Z,73.5
2023-05-10T06:09:10.065Z,73.5
2023-05-10T06:10:11.236Z,73.4
2023-05-10T06:11:12.400Z,73.4
2023-05-10T06:12:13.568Z,73.3
2023-05-10T06:13:14.868Z,73.3
2023-05-10T06:14:16.015Z,73.2
2023-05-10T06:15:17.799Z,73.2
2023-05-10T06:16:19.187Z,73.2
2023-05-10T06:17:20.332Z,73.2
2023-05-10T06:18:21.498Z,73.2
2023-05-10T06:19:22.782Z,73.1
2023-05-10T06:20:23.958Z,73.1
2023-05-10T06:21:25.123Z,73
2023-05-10T06:22:26.299Z,73
2023-05-10T06:23:27.457Z,73
2023-05-10T06:24:28.627Z,72.9
2023-05-10T06:25:29.784Z,72.8
2023-05-10T06:26:30.958Z,72.8
2023-05-10T06:27:32.116Z,72.7
2023-05-10T06:28:33.287Z,72.7
2023-05-10T06:29:34.453Z,72.7
2023-05-10T06:30:35.623Z,72.7
2023-05-10T06:31:36.978Z,72.6
2023-05-10T06:32:38.175Z,72.6
2023-05-10T06:33:39.339Z,72.6
2023-05-10T06:34:40.808Z,72.6
2023-05-10T06:35:41.948Z,72.5
2023-05-10T06:36:43.103Z,72.4
2023-05-10T06:37:44.271Z,72.4
2023-05-10T06:38:45.436Z,72.3
2023-05-10T06:39:46.684Z,72.2
2023-05-10T06:40:47.821Z,72.2
2023-05-10T06:41:48.988Z,72.1
2023-05-10T06:42:50.149Z,72
2023-05-10T06:43:51.322Z,72
2023-05-10T06:44:52.488Z,72
2023-05-10T06:45:53.686Z,71.9
2023-05-10T06:46:54.889Z,71.9
2023-05-10T06:47:56.096Z,71.9
2023-05-10T06:48:57.248Z,71.8
2023-05-10T06:49:58.477Z,71.8
2023-05-10T06:50:59.621Z,71.8
2023-05-10T06:52:00.784Z,71.7
2023-05-10T06:53:01.945Z,71.7
2023-05-10T06:54:03.107Z,71.6
2023-05-10T06:55:04.304Z,71.6
2023-05-10T06:56:05.483Z,71.6
2023-05-10T06:57:32.161Z,71.5
2023-05-10T06:58:33.440Z,71.6
2023-05-10T06:59:34.689Z,71.5
2023-05-10T07:00:35.972Z,71.5
2023-05-10T07:01:37.158Z,71.4
2023-05-10T07:02:38.400Z,71.3
2023-05-10T07:03:39.564Z,71.3
2023-05-10T07:04:40.792Z,71.2
2023-05-10T07:05:42.357Z,71.2
2023-05-10T07:06:43.626Z,71.1
2023-05-10T07:07:44.801Z,71.1
2023-05-10T07:08:45.982Z,71
2023-05-10T07:09:47.196Z,71
2023-05-10T07:10:48.361Z,71
2023-05-10T07:11:49.528Z,71
2023-05-10T07:12:50.942Z,70.9
2023-05-10T07:13:52.116Z,70.9
2023-05-10T07:14:53.291Z,70.9
2023-05-10T07:15:54.465Z,70.9
2023-05-10T07:16:55.677Z,70.8
2023-05-10T07:17:57.367Z,70.9
2023-05-10T07:18:58.679Z,70.9
2023-05-10T07:19:59.835Z,70.9
2023-05-10T07:21:01.131Z,70.9
2023-05-10T07:22:02.283Z,70.9
2023-05-10T07:23:03.444Z,70.9
2023-05-10T07:24:04.608Z,70.9
2023-05-10T07:25:05.774Z,70.9
2023-05-10T07:26:06.936Z,70.8
2023-05-10T07:27:08.110Z,70.8
2023-05-10T07:28:09.265Z,70.8
2023-05-10T07:29:10.462Z,70.8
2023-05-10T07:30:11.664Z,70.8
2023-05-10T07:31:12.836Z,70.8
2023-05-10T07:32:14.066Z,70.8
2023-05-10T07:33:15.311Z,70.9
2023-05-10T07:34:16.453Z,70.9
2023-05-10T07:35:18.587Z,70.8
2023-05-10T07:36:23.101Z,70.9
2023-05-10T07:37:24.231Z,70.8
2023-05-10T07:38:25.394Z,70.8
2023-05-10T07:39:28.943Z,70.8
2023-05-10T07:40:30.108Z,70.7
2023-05-10T07:41:31.274Z,70.7
2023-05-10T07:42:32.451Z,70.7
2023-05-10T07:43:33.637Z,70.6
2023-05-10T07:44:34.796Z,70.6
2023-05-10T07:45:36.067Z,70.6
2023-05-10T07:46:37.215Z,70.6
2023-05-10T07:47:38.469Z,70.6
2023-05-10T07:48:39.654Z,70.6
2023-05-10T07:49:40.850Z,70.6
2023-05-10T07:50:44.972Z,70.6
2023-05-10T07:51:46.318Z,70.6
2023-05-10T07:52:47.480Z,70.6
2023-05-10T07:53:49.025Z,70.6
2023-05-10T07:54:50.186Z,70.6
2023-05-10T07:55:51.353Z,70.6
2023-05-10T07:56:52.516Z,70.5
2023-05-10T07:57:53.687Z,70.5
2023-05-10T07:58:54.856Z,70.5
2023-05-10T07:59:56.018Z,70.4
2023-05-10T08:00:57.186Z,70.4
2023-05-10T08:01:58.402Z,70.4
2023-05-10T08:03:00.244Z,70.4
2023-05-10T08:04:01.888Z,70.4
2023-05-10T08:05:06.100Z,70.4
2023-05-10T08:06:07.262Z,70.4
2023-05-10T08:07:08.463Z,70.3
2023-05-10T08:08:09.606Z,70.3
2023-05-10T08:09:11.090Z,70.3
2023-05-10T08:10:12.296Z,70.3
2023-05-10T08:11:13.481Z,70.2
2023-05-10T08:12:14.649Z,70.2
2023-05-10T08:13:15.817Z,70.1
2023-05-10T08:14:16.982Z,70.1
2023-05-10T08:15:19.228Z,70
2023-05-10T08:16:20.597Z,70
2023-05-10T08:17:25.221Z,69.9
2023-05-10T08:18:26.455Z,69.9
2023-05-10T08:19:27.577Z,69.9
2023-05-10T08:20:28.750Z,69.9
2023-05-10T08:21:29.925Z,69.9
2023-05-10T08:22:31.122Z,69.9
2023-05-10T08:23:32.249Z,69.9
2023-05-10T08:24:33.426Z,69.9
2023-05-10T08:25:34.588Z,69.9
2023-05-10T08:26:35.764Z,69.9
2023-05-10T08:27:36.924Z,69.9
2023-05-10T08:28:38.095Z,69.9
2023-05-10T08:29:51.122Z,69.9
2023-05-10T08:30:52.328Z,69.9
2023-05-10T08:31:53.540Z,69.9
2023-05-10T08:32:54.702Z,69.9
2023-05-10T08:33:55.862Z,69.9
2023-05-10T08:34:57.038Z,69.9
2023-05-10T08:35:58.194Z,69.9
2023-05-10T08:36:59.369Z,69.9
2023-05-10T08:38:00.613Z,69.9
2023-05-10T08:39:01.749Z,69.9
2023-05-10T08:40:03.014Z,70
2023-05-10T08:41:04.175Z,70
2023-05-10T08:42:05.335Z,70
2023-05-10T08:43:06.501Z,70.1
2023-05-10T08:44:07.656Z,70.1
2023-05-10T08:45:08.919Z,70.1
2023-05-10T08:46:10.249Z,70.2
2023-05-10T08:47:11.722Z,70.2
2023-05-10T08:48:12.877Z,70.2
2023-05-10T08:49:14.035Z,70.2
2023-05-10T08:50:15.205Z,70.3
2023-05-10T08:51:16.370Z,70.3
2023-05-10T08:52:17.536Z,70.3
2023-05-10T08:53:18.737Z,70.3
2023-05-10T08:54:19.877Z,70.4
2023-05-10T08:55:21.282Z,70.4
2023-05-10T08:56:22.439Z,70.4
2023-05-10T08:57:23.616Z,70.5
2023-05-10T08:58:24.782Z,70.5
2023-05-10T08:59:25.935Z,70.6
2023-05-10T09:00:27.110Z,70.6
2023-05-10T09:01:28.438Z,70.6
2023-05-10T09:02:29.861Z,70.6
2023-05-10T09:03:31.018Z,70.7
2023-05-10T09:04:32.514Z,70.7
2023-05-10T09:05:33.740Z,70.8
2023-05-10T09:06:34.880Z,70.8
2023-05-10T09:07:37.218Z,70.8
2023-05-10T09:08:38.432Z,70.8
2023-05-10T09:09:39.572Z,70.8
2023-05-10T09:10:40.800Z,70.8
2023-05-10T09:11:41.996Z,70.8
2023-05-10T09:12:43.167Z,70.8
2023-05-10T09:13:44.339Z,70.9
2023-05-10T09:14:45.539Z,70.8
2023-05-10T09:15:46.704Z,70.8
2023-05-10T09:16:47.964Z,70.9
2023-05-10T09:17:49.257Z,70.9
2023-05-10T09:18:50.663Z,70.9
2023-05-10T09:19:52.048Z,70.8
2023-05-10T09:20:53.222Z,70.8
2023-05-10T09:21:54.379Z,70.9
2023-05-10T09:22:55.547Z,70.9
2023-05-10T09:23:56.763Z,70.9
2023-05-10T09:24:57.904Z,70.9
2023-05-10T09:25:59.092Z,70.9
2023-05-10T09:27:00.260Z,71
2023-05-10T09:28:01.427Z,71
2023-05-10T09:29:02.591Z,71
2023-05-10T09:30:03.759Z,71.1
2023-05-10T09:31:04.947Z,71.1
2023-05-10T09:32:06.124Z,71.1
2023-05-10T09:33:07.320Z,71.2
2023-05-10T09:34:08.508Z,71.2
2023-05-10T09:35:09.688Z,71.2
2023-05-10T09:36:10.852Z,71.2
2023-05-10T09:37:12.017Z,71.2
2023-05-10T09:38:13.180Z,71.2
2023-05-10T09:39:14.454Z,71.2
2023-05-10T09:40:15.579Z,71.2
2023-05-10T09:41:16.762Z,71.2
2023-05-10T09:42:17.911Z,71.2
2023-05-10T09:43:19.078Z,71.2
2023-05-10T09:44:20.244Z,71.3
2023-05-10T09:45:21.418Z,71.3
2023-05-10T09:46:22.721Z,71.4
2023-05-10T09:47:23.961Z,71.4
2023-05-10T09:48:25.160Z,71.4
2023-05-10T09:49:26.328Z,71.5
2023-05-10T09:50:27.490Z,71.5
2023-05-10T09:51:28.685Z,71.6
2023-05-10T09:52:29.849Z,71.6
2023-05-10T09:53:31.015Z,71.5
2023-05-10T09:54:32.220Z,71.5
2023-05-10T09:55:33.364Z,71.5
2023-05-10T09:56:34.817Z,71.5
2023-05-10T09:57:36.013Z,71.5
2023-05-10T09:58:37.188Z,71.6
2023-05-10T09:59:38.360Z,71.6
2023-05-10T10:00:39.524Z,71.6
2023-05-10T10:01:41.021Z,71.6
2023-05-10T10:02:42.227Z,71.6
2023-05-10T10:03:43.380Z,71.6
2023-05-10T10:04:44.625Z,71.6
2023-05-10T10:05:45.802Z,71.6
2023-05-10T10:06:46.954Z,71.7
2023-05-10T10:07:48.122Z,71.7
2023-05-10T10:08:49.285Z,71.7
2023-05-10T10:09:50.484Z,71.8
2023-05-10T10:10:51.627Z,71.7
2023-05-10T10:11:52.785Z,71.8
2023-05-10T10:12:53.961Z,71.8
2023-05-10T10:13:55.115Z,71.8
2023-05-10T10:14:56.292Z,71.9
2023-05-10T10:15:57.455Z,71.9
2023-05-10T10:17:09.612Z,71.9
2023-05-10T10:18:10.872Z,71.9
2023-05-10T10:19:12.039Z,71.9
2023-05-10T10:20:13.208Z,71.8
2023-05-10T10:21:14.371Z,71.8
2023-05-10T10:22:15.536Z,71.8
2023-05-10T10:23:18.408Z,71.8
2023-05-10T10:24:19.563Z,71.7
2023-05-10T10:25:20.917Z,71.7
2023-05-10T10:26:22.068Z,71.7
2023-05-10T10:27:23.206Z,71.7
2023-05-10T10:28:28.231Z,71.7
2023-05-10T10:29:29.609Z,71.7
2023-05-10T10:30:30.791Z,71.7
2023-05-10T10:31:32.027Z,71.8
2023-05-10T10:32:33.356Z,71.8
2023-05-10T10:33:34.508Z,71.9
2023-05-10T10:34:35.658Z,72
2023-05-10T10:35:36.828Z,72.1
2023-05-10T10:36:38.019Z,72.1
2023-05-10T10:37:39.181Z,72.2
2023-05-10T10:38:40.342Z,72.2
2023-05-10T10:39:41.517Z,72.3
2023-05-10T10:40:42.818Z,72.3
2023-05-10T10:41:44.150Z,72.4
2023-05-10T10:42:45.332Z,72.3
2023-05-10T10:43:46.487Z,72.3
2023-05-10T10:44:47.656Z,72.3
2023-05-10T10:45:48.817Z,72.3
2023-05-10T10:46:50.036Z,72.3
2023-05-10T10:47:51.346Z,72.2
2023-05-10T10:48:52.510Z,72.2
2023-05-10T10:49:53.912Z,72.2
2023-05-10T10:50:55.081Z,72.1
2023-05-10T10:51:56.244Z,72.1
2023-05-10T10:52:57.484Z,72.1
2023-05-10T10:53:58.635Z,72
2023-05-10T10:54:59.827Z,71.9
2023-05-10T10:56:01.027Z,71.9
2023-05-10T10:57:02.156Z,71.8
2023-05-10T10:58:03.657Z,71.8
2023-05-10T10:59:04.798Z,71.7
2023-05-10T11:00:05.963Z,71.7
2023-05-10T11:01:07.176Z,71.7
2023-05-10T11:02:08.386Z,71.7
2023-05-10T11:03:10.292Z,71.8
2023-05-10T11:04:11.600Z,71.8
2023-05-10T11:05:12.745Z,71.9
2023-05-10T11:06:13.913Z,72
2023-05-10T11:07:15.078Z,72
2023-05-10T11:08:16.239Z,72
2023-05-10T11:09:17.474Z,72
2023-05-10T11:10:18.594Z,72
2023-05-10T11:11:19.785Z,71.9
2023-05-10T11:12:20.929Z,71.9
2023-05-10T11:13:22.088Z,71.9
2023-05-10T11:14:23.269Z,71.9
2023-05-10T11:15:24.423Z,71.9
2023-05-10T11:16:26.324Z,71.9
2023-05-10T11:17:27.691Z,71.9
2023-05-10T11:18:28.878Z,71.9
2023-05-10T11:19:30.044Z,71.9
2023-05-10T11:20:31.188Z,71.9
2023-05-10T11:21:32.363Z,71.9
2023-05-10T11:22:33.519Z,71.9
2023-05-10T11:23:34.712Z,71.8
2023-05-10T11:24:35.876Z,71.8
2023-05-10T11:25:37.039Z,71.9
2023-05-10T11:26:38.283Z,71.9
2023-05-10T11:27:39.451Z,71.9
2023-05-10T11:28:40.615Z,71.9
2023-05-10T11:29:41.772Z,71.9
2023-05-10T11:30:43.057Z,71.9
2023-05-10T11:31:44.231Z,71.9
2023-05-10T11:32:45.493Z,71.9
2023-05-10T11:33:46.645Z,72
2023-05-10T11:34:47.810Z,72
2023-05-10T11:35:48.979Z,72
2023-05-10T11:36:50.145Z,72
2023-05-10T11:37:51.316Z,72
2023-05-10T11:38:52.491Z,72
2023-05-10T11:39:53.705Z,72.1
2023-05-10T11:40:54.876Z,72.1
2023-05-10T11:41:56.066Z,72.1
2023-05-10T11:42:57.204Z,72.1
2023-05-10T11:43:58.378Z,72.1
2023-05-10T11:44:59.540Z,72.1
2023-05-10T11:46:00.769Z,72.1
2023-05-10T11:47:01.952Z,72
2023-05-10T11:48:03.394Z,72
2023-05-10T11:49:04.546Z,72.1
2023-05-10T11:50:05.703Z,72.1
2023-05-10T11:51:06.869Z,72.1
2023-05-10T11:52:08.079Z,72.1
2023-05-10T11:53:09.225Z,72.2
2023-05-10T11:54:10.472Z,72.2
2023-05-10T11:55:11.657Z,72.2
2023-05-10T11:56:12.820Z,72.2
2023-05-10T11:57:14.027Z,72.2
2023-05-10T11:58:15.157Z,72.2
2023-05-10T11:59:16.788Z,72.2
2023-05-10T12:00:19.268Z,72.1
2023-05-10T12:01:20.701Z,72.1
2023-05-10T12:02:21.915Z,72
2023-05-10T12:03:23.406Z,72
2023-05-10T12:04:24.647Z,71.9
2023-05-10T12:05:25.818Z,71.9
2023-05-10T12:06:26.997Z,71.9
2023-05-10T12:07:28.167Z,71.8
2023-05-10T12:08:29.334Z,71.8
2023-05-10T12:09:44.895Z,71.8
2023-05-10T12:10:51.262Z,71.8
2023-05-10T12:12:34.894Z,71.8
2023-05-10T12:13:46.072Z,71.8
2023-05-10T12:14:54.907Z,71.8
2023-05-10T12:15:58.878Z,71.8
2023-05-10T12:17:10.061Z,71.8
2023-05-10T12:18:42.109Z,71.8
2023-05-10T12:19:46.139Z,71.9
2023-05-10T12:21:12.879Z,71.9
2023-05-10T12:23:29.337Z,71.8
2023-05-10T12:24:57.715Z,71.8
2023-05-10T12:27:05.246Z,71.7
2023-05-10T12:28:08.960Z,71.6
2023-05-10T12:29:20.581Z,71.5
2023-05-10T12:30:21.799Z,71.5
2023-05-10T12:31:39.371Z,71.4
2023-05-10T12:32:43.776Z,71.4
2023-05-10T12:36:37.848Z,71.3
2023-05-10T12:37:41.098Z,71.4
2023-05-10T12:38:45.055Z,71.4
2023-05-10T13:19:45.555Z,69.8
2023-05-10T13:21:33.146Z,69.6
2023-05-10T13:24:00.737Z,69.4
2023-05-10T13:25:34.224Z,69.3
2023-05-10T13:26:52.712Z,69.2
2023-05-10T13:29:21.063Z,69.1
2023-05-10T13:30:46.213Z,69.1
2023-05-10T13:31:54.429Z,69
2023-05-10T13:32:55.894Z,69
2023-05-10T13:34:02.528Z,68.9
2023-05-10T13:35:13.218Z,68.8
2023-05-10T13:36:23.181Z,68.8
2023-05-10T13:38:38.790Z,68.7
2023-05-10T13:39:51.632Z,68.7
2023-05-10T13:40:55.784Z,68.7
2023-05-10T13:42:02.778Z,68.6
2023-05-10T13:43:06.921Z,68.6
2023-05-10T13:44:15.581Z,68.6
2023-05-10T13:45:23.441Z,68.6
2023-05-10T13:46:30.783Z,68.6
2023-05-10T13:47:37.769Z,68.6
2023-05-10T13:48:44.725Z,68.6
2023-05-10T13:49:49.811Z,68.6
2023-05-10T13:50:59.328Z,68.6
2023-05-10T13:52:00.515Z,68.6
2023-05-10T13:53:03.863Z,68.6
2023-05-10T13:55:40.326Z,68.6
2023-05-10T13:56:44.458Z,68.6
2023-05-10T13:57:45.594Z,68.5
2023-05-10T13:58:49.266Z,68.5
2023-05-10T14:00:01.296Z,68.5
2023-05-10T14:03:59.164Z,68.4
2023-05-10T14:05:03.211Z,68.4
2023-05-10T14:06:07.224Z,68.4
2023-05-10T14:07:11.089Z,68.4
2023-05-10T14:09:53.796Z,68.4
2023-05-10T14:11:04.844Z,68.4
2023-05-10T14:12:08.661Z,68.4
2023-05-10T14:13:12.417Z,68.4
2023-05-10T14:14:39.859Z,68.4
2023-05-10T14:15:56.192Z,68.4
2023-05-10T14:17:11.531Z,68.4
2023-05-10T14:18:30.572Z,68.4
2023-05-10T14:19:34.448Z,68.4
2023-05-10T14:20:59.975Z,68.4
2023-05-10T14:23:09.267Z,68.4
2023-05-10T14:24:17.579Z,68.5
2023-05-10T14:25:27.000Z,68.5
2023-05-10T14:26:28.152Z,68.5
2023-05-10T14:29:21.385Z,68.4
2023-05-10T14:30:46.056Z,68.6
2023-05-10T14:32:09.081Z,68.5
2023-05-10T14:33:13.168Z,68.5
2023-05-10T14:35:39.412Z,68.4
2023-05-10T14:36:49.301Z,68.3
2023-05-10T14:37:56.247Z,68.3
2023-05-10T14:39:05.379Z,68.2
2023-05-10T14:40:10.830Z,68.2
2023-05-10T14:41:23.667Z,68.2
2023-05-10T14:42:25.840Z,68.2
2023-05-10T14:43:27.011Z,68.1
2023-05-10T14:44:31.090Z,68
2023-05-10T14:45:46.284Z,67.9
2023-05-10T14:46:47.492Z,67.9
2023-05-10T14:47:51.583Z,67.8
2023-05-10T14:48:55.532Z,67.8
2023-05-10T14:53:00.539Z,67.5
2023-05-10T14:54:36.089Z,67.6
2023-05-10T14:55:37.309Z,67.5